sensor_id;sensor_type;location;lat;lon;timestamp;P1;durP1;ratioP1;P2;durP2;ratioP2
56255;SDS011;57229;51.432;-2.598;2023-07-31T00:00:07;2.78;;;2.05;;
56255;SDS011;57229;51.432;-2.598;2023-07-31T00:02:34;4.22;;;2.15;;
56255;SDS011;57229;51.432;-2.598;2023-07-31T00:05:07;2.33;;;1.75;;
56255;SDS011;57229;51.432;-2.598;2023-07-31T00:07:34;2.78;;;2.22;;
56255;SDS011;57229;51.432;-2.598;2023-07-31T00:10:26;4.05;;;2.67;;
56255;SDS011;57229;51.432;-2.598;2023-07-31T00:12:58;2.70;;;2.17;;
56255;SDS011;57229;51.432;-2.598;2023-07-31T00:15:27;3.90;;;2.45;;
56255;SDS011;57229;51.432;-2.598;2023-07-31T00:17:53;2.30;;;2.10;;
56255;SDS011;57229;51.432;-2.598;2023-07-31T00:20:18;2.92;;;2.10;;
56255;SDS011;57229;51.432;-2.598;2023-07-31T00:22:44;3.45;;;2.10;;
56255;SDS011;57229;51.432;-2.598;2023-07-31T00:25:09;3.10;;;1.70;;
56255;SDS011;57229;51.432;-2.598;2023-07-31T00:27:35;3.72;;;1.90;;
56255;SDS011;57229;51.432;-2.598;2023-07-31T00:30:01;2.13;;;1.75;;
56255;SDS011;57229;51.432;-2.598;2023-07-31T00:32:26;3.28;;;1.98;;
56255;SDS011;57229;51.432;-2.598;2023-07-31T00:34:52;2.83;;;2.10;;
56255;SDS011;57229;51.432;-2.598;2023-07-31T00:37:18;2.78;;;2.00;;
56255;SDS011;57229;51.432;-2.598;2023-07-31T00:39:49;3.10;;;1.92;;
56255;SDS011;57229;51.432;-2.598;2023-07-31T00:42:28;3.65;;;2.35;;
56255;SDS011;57229;51.432;-2.598;2023-07-31T00:44:57;5.15;;;2.35;;
56255;SDS011;57229;51.432;-2.598;2023-07-31T00:47:22;4.40;;;2.13;;
56255;SDS011;57229;51.432;-2.598;2023-07-31T00:49:48;4.97;;;2.15;;
56255;SDS011;57229;51.432;-2.598;2023-07-31T00:52:19;3.72;;;1.98;;
56255;SDS011;57229;51.432;-2.598;2023-07-31T00:54:46;3.10;;;1.80;;
56255;SDS011;57229;51.432;-2.598;2023-07-31T00:57:12;4.32;;;2.53;;
56255;SDS011;57229;51.432;-2.598;2023-07-31T00:59:38;4.82;;;2.35;;
56255;SDS011;57229;51.432;-2.598;2023-07-31T01:02:04;4.03;;;2.25;;
56255;SDS011;57229;51.432;-2.598;2023-07-31T01:04:30;3.58;;;2.17;;
56255;SDS011;57229;51.432;-2.598;2023-07-31T01:07:09;2.05;;;1.70;;
56255;SDS011;57229;51.432;-2.598;2023-07-31T01:12:43;3.50;;;1.55;;
56255;SDS011;57229;51.432;-2.598;2023-07-31T01:15:11;2.78;;;2.20;;
56255;SDS011;57229;51.432;-2.598;2023-07-31T01:17:39;1.80;;;1.60;;
56255;SDS011;57229;51.432;-2.598;2023-07-31T01:20:10;2.47;;;1.70;;
56255;SDS011;57229;51.432;-2.598;2023-07-31T01:22:43;1.73;;;1.63;;
56255;SDS011;57229;51.432;-2.598;2023-07-31T01:28:14;2.10;;;1.75;;
56255;SDS011;57229;51.432;-2.598;2023-07-31T01:30:46;2.20;;;1.60;;
56255;SDS011;57229;51.432;-2.598;2023-07-31T01:33:16;5.88;;;1.98;;
56255;SDS011;57229;51.432;-2.598;2023-07-31T01:35:43;2.03;;;1.70;;
56255;SDS011;57229;51.432;-2.598;2023-07-31T01:38:10;2.08;;;1.52;;
56255;SDS011;57229;51.432;-2.598;2023-07-31T01:40:35;1.77;;;1.67;;
56255;SDS011;57229;51.432;-2.598;2023-07-31T01:43:07;3.17;;;1.60;;
56255;SDS011;57229;51.432;-2.598;2023-07-31T01:45:36;2.25;;;1.70;;
56255;SDS011;57229;51.432;-2.598;2023-07-31T01:48:02;1.75;;;1.55;;
56255;SDS011;57229;51.432;-2.598;2023-07-31T01:50:27;2.47;;;1.50;;
56255;SDS011;57229;51.432;-2.598;2023-07-31T01:52:53;1.52;;;1.42;;
56255;SDS011;57229;51.432;-2.598;2023-07-31T01:55:22;1.80;;;1.70;;
56255;SDS011;57229;51.432;-2.598;2023-07-31T01:57:50;1.85;;;1.40;;
56255;SDS011;57229;51.432;-2.598;2023-07-31T02:00:17;1.73;;;1.60;;
56255;SDS011;57229;51.432;-2.598;2023-07-31T02:02:56;1.60;;;1.50;;
56255;SDS011;57229;51.432;-2.598;2023-07-31T02:05:49;2.28;;;1.40;;
56255;SDS011;57229;51.432;-2.598;2023-07-31T02:11:20;1.33;;;1.23;;
56255;SDS011;57229;51.432;-2.598;2023-07-31T02:13:45;1.70;;;1.40;;
56255;SDS011;57229;51.432;-2.598;2023-07-31T02:16:11;2.42;;;1.40;;
56255;SDS011;57229;51.432;-2.598;2023-07-31T02:18:36;5.40;;;1.60;;
56255;SDS011;57229;51.432;-2.598;2023-07-31T02:21:02;4.60;;;1.70;;
56255;SDS011;57229;51.432;-2.598;2023-07-31T02:23:28;7.25;;;2.47;;
56255;SDS011;57229;51.432;-2.598;2023-07-31T02:25:53;6.90;;;2.33;;
56255;SDS011;57229;51.432;-2.598;2023-07-31T02:28:19;10.68;;;3.00;;
56255;SDS011;57229;51.432;-2.598;2023-07-31T02:30:44;7.15;;;2.50;;
56255;SDS011;57229;51.432;-2.598;2023-07-31T02:33:14;9.80;;;2.90;;
56255;SDS011;57229;51.432;-2.598;2023-07-31T02:35:40;7.22;;;3.00;;
56255;SDS011;57229;51.432;-2.598;2023-07-31T02:38:06;10.07;;;2.88;;
56255;SDS011;57229;51.432;-2.598;2023-07-31T02:40:31;10.30;;;3.70;;
56255;SDS011;57229;51.432;-2.598;2023-07-31T02:43:21;19.33;;;3.70;;
56255;SDS011;57229;51.432;-2.598;2023-07-31T02:45:50;16.67;;;3.72;;
56255;SDS011;57229;51.432;-2.598;2023-07-31T02:48:19;20.05;;;4.10;;
56255;SDS011;57229;51.432;-2.598;2023-07-31T02:50:47;22.13;;;4.93;;
56255;SDS011;57229;51.432;-2.598;2023-07-31T02:53:17;19.10;;;4.35;;
56255;SDS011;57229;51.432;-2.598;2023-07-31T02:55:43;16.98;;;4.70;;
56255;SDS011;57229;51.432;-2.598;2023-07-31T02:58:09;17.00;;;4.57;;
56255;SDS011;57229;51.432;-2.598;2023-07-31T03:00:35;24.77;;;5.45;;
56255;SDS011;57229;51.432;-2.598;2023-07-31T03:03:01;29.52;;;5.07;;
56255;SDS011;57229;51.432;-2.598;2023-07-31T03:05:26;21.23;;;5.22;;
56255;SDS011;57229;51.432;-2.598;2023-07-31T03:07:52;13.65;;;4.10;;
56255;SDS011;57229;51.432;-2.598;2023-07-31T03:10:18;22.05;;;4.75;;
56255;SDS011;57229;51.432;-2.598;2023-07-31T03:12:46;23.50;;;4.70;;
56255;SDS011;57229;51.432;-2.598;2023-07-31T03:15:13;19.33;;;5.38;;
56255;SDS011;57229;51.432;-2.598;2023-07-31T03:17:38;21.63;;;4.90;;
56255;SDS011;57229;51.432;-2.598;2023-07-31T03:20:04;28.85;;;5.72;;
56255;SDS011;57229;51.432;-2.598;2023-07-31T03:23:16;18.45;;;4.55;;
56255;SDS011;57229;51.432;-2.598;2023-07-31T03:25:33;15.27;;;4.25;;
56255;SDS011;57229;51.432;-2.598;2023-07-31T03:27:59;14.32;;;3.63;;
56255;SDS011;57229;51.432;-2.598;2023-07-31T03:30:24;16.52;;;4.68;;
56255;SDS011;57229;51.432;-2.598;2023-07-31T03:32:51;12.52;;;4.35;;
56255;SDS011;57229;51.432;-2.598;2023-07-31T03:35:17;17.67;;;5.70;;
56255;SDS011;57229;51.432;-2.598;2023-07-31T03:37:43;21.33;;;4.75;;
56255;SDS011;57229;51.432;-2.598;2023-07-31T03:40:09;13.38;;;4.40;;
56255;SDS011;57229;51.432;-2.598;2023-07-31T03:42:51;15.27;;;5.28;;
56255;SDS011;57229;51.432;-2.598;2023-07-31T03:45:24;19.30;;;5.93;;
56255;SDS011;57229;51.432;-2.598;2023-07-31T03:47:49;14.95;;;4.93;;
56255;SDS011;57229;51.432;-2.598;2023-07-31T03:50:16;20.83;;;6.13;;
56255;SDS011;57229;51.432;-2.598;2023-07-31T03:52:41;20.95;;;6.05;;
56255;SDS011;57229;51.432;-2.598;2023-07-31T03:55:07;22.75;;;5.30;;
56255;SDS011;57229;51.432;-2.598;2023-07-31T03:57:33;18.17;;;5.32;;
56255;SDS011;57229;51.432;-2.598;2023-07-31T03:59:59;23.08;;;5.53;;
56255;SDS011;57229;51.432;-2.598;2023-07-31T04:02:24;32.88;;;6.57;;
56255;SDS011;57229;51.432;-2.598;2023-07-31T04:04:50;21.65;;;6.97;;
56255;SDS011;57229;51.432;-2.598;2023-07-31T04:07:16;16.38;;;5.65;;
56255;SDS011;57229;51.432;-2.598;2023-07-31T04:09:41;18.88;;;6.05;;
56255;SDS011;57229;51.432;-2.598;2023-07-31T04:12:07;21.75;;;6.10;;
56255;SDS011;57229;51.432;-2.598;2023-07-31T04:14:33;23.08;;;6.13;;
56255;SDS011;57229;51.432;-2.598;2023-07-31T04:16:59;23.02;;;6.07;;
56255;SDS011;57229;51.432;-2.598;2023-07-31T04:19:24;18.48;;;6.30;;
56255;SDS011;57229;51.432;-2.598;2023-07-31T04:21:50;19.92;;;5.85;;
56255;SDS011;57229;51.432;-2.598;2023-07-31T04:24:15;18.08;;;6.18;;
56255;SDS011;57229;51.432;-2.598;2023-07-31T04:26:47;24.08;;;6.90;;
56255;SDS011;57229;51.432;-2.598;2023-07-31T04:29:12;16.15;;;6.30;;
56255;SDS011;57229;51.432;-2.598;2023-07-31T04:31:38;17.48;;;6.68;;
56255;SDS011;57229;51.432;-2.598;2023-07-31T04:34:03;22.52;;;6.88;;
56255;SDS011;57229;51.432;-2.598;2023-07-31T04:36:29;22.13;;;6.80;;
56255;SDS011;57229;51.432;-2.598;2023-07-31T04:38:55;24.45;;;6.35;;
56255;SDS011;57229;51.432;-2.598;2023-07-31T04:41:20;22.38;;;7.82;;
56255;SDS011;57229;51.432;-2.598;2023-07-31T04:43:46;22.08;;;6.85;;
56255;SDS011;57229;51.432;-2.598;2023-07-31T04:46:12;25.13;;;6.68;;
56255;SDS011;57229;51.432;-2.598;2023-07-31T04:48:37;18.02;;;6.20;;
56255;SDS011;57229;51.432;-2.598;2023-07-31T04:51:03;19.08;;;6.70;;
56255;SDS011;57229;51.432;-2.598;2023-07-31T04:53:28;21.45;;;7.03;;
56255;SDS011;57229;51.432;-2.598;2023-07-31T04:55:54;22.55;;;7.07;;
56255;SDS011;57229;51.432;-2.598;2023-07-31T04:58:20;16.52;;;6.55;;
56255;SDS011;57229;51.432;-2.598;2023-07-31T05:00:45;11.93;;;5.90;;
56255;SDS011;57229;51.432;-2.598;2023-07-31T05:03:11;24.63;;;7.18;;
56255;SDS011;57229;51.432;-2.598;2023-07-31T05:05:36;19.02;;;6.75;;
56255;SDS011;57229;51.432;-2.598;2023-07-31T05:08:02;18.95;;;6.90;;
56255;SDS011;57229;51.432;-2.598;2023-07-31T05:10:28;16.60;;;6.35;;
56255;SDS011;57229;51.432;-2.598;2023-07-31T05:12:53;21.50;;;6.55;;
56255;SDS011;57229;51.432;-2.598;2023-07-31T05:15:19;20.38;;;6.85;;
56255;SDS011;57229;51.432;-2.598;2023-07-31T05:17:45;14.32;;;6.00;;
56255;SDS011;57229;51.432;-2.598;2023-07-31T05:20:10;20.33;;;6.53;;
56255;SDS011;57229;51.432;-2.598;2023-07-31T05:22:36;17.60;;;6.40;;
56255;SDS011;57229;51.432;-2.598;2023-07-31T05:25:02;17.20;;;5.68;;
56255;SDS011;57229;51.432;-2.598;2023-07-31T05:27:28;14.15;;;5.38;;
56255;SDS011;57229;51.432;-2.598;2023-07-31T05:29:53;14.40;;;6.00;;
56255;SDS011;57229;51.432;-2.598;2023-07-31T05:32:19;18.58;;;6.50;;
56255;SDS011;57229;51.432;-2.598;2023-07-31T05:34:45;14.75;;;5.18;;
56255;SDS011;57229;51.432;-2.598;2023-07-31T05:37:11;14.05;;;5.22;;
56255;SDS011;57229;51.432;-2.598;2023-07-31T05:39:37;11.10;;;5.45;;
56255;SDS011;57229;51.432;-2.598;2023-07-31T05:42:02;24.05;;;5.82;;
56255;SDS011;57229;51.432;-2.598;2023-07-31T05:44:28;18.58;;;6.53;;
56255;SDS011;57229;51.432;-2.598;2023-07-31T05:46:55;19.30;;;6.45;;
56255;SDS011;57229;51.432;-2.598;2023-07-31T05:49:20;19.08;;;5.82;;
56255;SDS011;57229;51.432;-2.598;2023-07-31T05:51:46;14.88;;;5.90;;
56255;SDS011;57229;51.432;-2.598;2023-07-31T05:54:12;15.52;;;5.68;;
56255;SDS011;57229;51.432;-2.598;2023-07-31T05:56:37;19.15;;;5.93;;
56255;SDS011;57229;51.432;-2.598;2023-07-31T05:59:03;16.42;;;6.30;;
56255;SDS011;57229;51.432;-2.598;2023-07-31T06:01:29;13.55;;;5.05;;
56255;SDS011;57229;51.432;-2.598;2023-07-31T06:03:55;13.50;;;5.40;;
56255;SDS011;57229;51.432;-2.598;2023-07-31T06:06:21;17.73;;;5.10;;
56255;SDS011;57229;51.432;-2.598;2023-07-31T06:08:46;14.05;;;5.28;;
56255;SDS011;57229;51.432;-2.598;2023-07-31T06:11:12;14.77;;;5.57;;
56255;SDS011;57229;51.432;-2.598;2023-07-31T06:13:38;16.48;;;5.28;;
56255;SDS011;57229;51.432;-2.598;2023-07-31T06:16:04;13.80;;;5.50;;
56255;SDS011;57229;51.432;-2.598;2023-07-31T06:18:34;12.05;;;4.70;;
56255;SDS011;57229;51.432;-2.598;2023-07-31T06:21:00;13.18;;;4.65;;
56255;SDS011;57229;51.432;-2.598;2023-07-31T06:23:25;9.13;;;4.10;;
56255;SDS011;57229;51.432;-2.598;2023-07-31T06:25:51;9.88;;;4.13;;
56255;SDS011;57229;51.432;-2.598;2023-07-31T06:28:17;8.43;;;4.80;;
56255;SDS011;57229;51.432;-2.598;2023-07-31T06:30:42;8.85;;;4.20;;
56255;SDS011;57229;51.432;-2.598;2023-07-31T06:33:08;12.80;;;4.43;;
56255;SDS011;57229;51.432;-2.598;2023-07-31T06:35:34;14.82;;;3.90;;
56255;SDS011;57229;51.432;-2.598;2023-07-31T06:38:00;10.63;;;4.20;;
56255;SDS011;57229;51.432;-2.598;2023-07-31T06:40:27;9.40;;;3.88;;
56255;SDS011;57229;51.432;-2.598;2023-07-31T06:42:53;13.30;;;4.68;;
56255;SDS011;57229;51.432;-2.598;2023-07-31T06:45:18;8.65;;;4.30;;
56255;SDS011;57229;51.432;-2.598;2023-07-31T06:47:44;13.90;;;3.88;;
56255;SDS011;57229;51.432;-2.598;2023-07-31T06:50:09;13.40;;;4.55;;
56255;SDS011;57229;51.432;-2.598;2023-07-31T06:52:35;11.82;;;4.72;;
56255;SDS011;57229;51.432;-2.598;2023-07-31T06:55:15;9.07;;;4.30;;
56255;SDS011;57229;51.432;-2.598;2023-07-31T06:57:48;12.88;;;4.65;;
56255;SDS011;57229;51.432;-2.598;2023-07-31T07:00:15;9.43;;;4.65;;
56255;SDS011;57229;51.432;-2.598;2023-07-31T07:02:41;8.77;;;4.75;;
56255;SDS011;57229;51.432;-2.598;2023-07-31T07:05:07;11.95;;;4.63;;
56255;SDS011;57229;51.432;-2.598;2023-07-31T07:07:33;8.52;;;4.60;;
56255;SDS011;57229;51.432;-2.598;2023-07-31T07:10:00;9.75;;;4.13;;
56255;SDS011;57229;51.432;-2.598;2023-07-31T07:12:27;11.93;;;4.93;;
56255;SDS011;57229;51.432;-2.598;2023-07-31T07:14:54;10.27;;;4.05;;
56255;SDS011;57229;51.432;-2.598;2023-07-31T07:17:19;9.70;;;4.00;;
56255;SDS011;57229;51.432;-2.598;2023-07-31T07:19:45;6.43;;;4.20;;
56255;SDS011;57229;51.432;-2.598;2023-07-31T07:22:12;8.57;;;4.03;;
56255;SDS011;57229;51.432;-2.598;2023-07-31T07:24:38;7.60;;;4.40;;
56255;SDS011;57229;51.432;-2.598;2023-07-31T07:27:03;7.93;;;3.95;;
56255;SDS011;57229;51.432;-2.598;2023-07-31T07:29:29;6.70;;;3.88;;
56255;SDS011;57229;51.432;-2.598;2023-07-31T07:31:55;6.18;;;3.75;;
56255;SDS011;57229;51.432;-2.598;2023-07-31T07:34:25;6.30;;;3.55;;
56255;SDS011;57229;51.432;-2.598;2023-07-31T07:36:51;7.85;;;3.50;;
56255;SDS011;57229;51.432;-2.598;2023-07-31T07:39:17;5.40;;;3.40;;
56255;SDS011;57229;51.432;-2.598;2023-07-31T07:41:42;11.30;;;3.90;;
56255;SDS011;57229;51.432;-2.598;2023-07-31T07:44:08;5.00;;;3.55;;
56255;SDS011;57229;51.432;-2.598;2023-07-31T07:46:33;5.53;;;4.00;;
56255;SDS011;57229;51.432;-2.598;2023-07-31T07:48:59;4.15;;;3.75;;
56255;SDS011;57229;51.432;-2.598;2023-07-31T07:51:25;4.30;;;3.72;;
56255;SDS011;57229;51.432;-2.598;2023-07-31T07:53:50;5.53;;;3.88;;
56255;SDS011;57229;51.432;-2.598;2023-07-31T07:56:16;6.30;;;3.85;;
56255;SDS011;57229;51.432;-2.598;2023-07-31T07:58:42;5.88;;;3.88;;
56255;SDS011;57229;51.432;-2.598;2023-07-31T08:01:08;7.68;;;3.85;;
56255;SDS011;57229;51.432;-2.598;2023-07-31T08:03:34;5.57;;;3.95;;
56255;SDS011;57229;51.432;-2.598;2023-07-31T08:06:00;6.75;;;4.15;;
56255;SDS011;57229;51.432;-2.598;2023-07-31T08:08:26;6.07;;;4.07;;
56255;SDS011;57229;51.432;-2.598;2023-07-31T08:10:53;7.78;;;4.40;;
56255;SDS011;57229;51.432;-2.598;2023-07-31T08:13:18;10.85;;;3.97;;
56255;SDS011;57229;51.432;-2.598;2023-07-31T08:15:44;5.47;;;4.13;;
56255;SDS011;57229;51.432;-2.598;2023-07-31T08:18:10;7.18;;;4.00;;
56255;SDS011;57229;51.432;-2.598;2023-07-31T08:20:36;5.55;;;3.55;;
56255;SDS011;57229;51.432;-2.598;2023-07-31T08:23:02;6.43;;;3.78;;
56255;SDS011;57229;51.432;-2.598;2023-07-31T08:25:28;5.25;;;3.58;;
56255;SDS011;57229;51.432;-2.598;2023-07-31T08:27:54;8.30;;;3.97;;
56255;SDS011;57229;51.432;-2.598;2023-07-31T08:30:19;6.80;;;4.20;;
56255;SDS011;57229;51.432;-2.598;2023-07-31T08:32:45;6.05;;;3.60;;
56255;SDS011;57229;51.432;-2.598;2023-07-31T08:35:11;7.05;;;3.80;;
56255;SDS011;57229;51.432;-2.598;2023-07-31T08:37:37;7.32;;;4.25;;
56255;SDS011;57229;51.432;-2.598;2023-07-31T08:40:04;9.35;;;3.67;;
56255;SDS011;57229;51.432;-2.598;2023-07-31T08:42:33;10.15;;;4.75;;
56255;SDS011;57229;51.432;-2.598;2023-07-31T08:44:59;12.45;;;4.90;;
56255;SDS011;57229;51.432;-2.598;2023-07-31T08:47:26;9.63;;;4.78;;
56255;SDS011;57229;51.432;-2.598;2023-07-31T08:49:53;14.57;;;5.40;;
56255;SDS011;57229;51.432;-2.598;2023-07-31T08:52:20;11.20;;;5.15;;
56255;SDS011;57229;51.432;-2.598;2023-07-31T08:54:46;14.30;;;5.13;;
56255;SDS011;57229;51.432;-2.598;2023-07-31T08:57:15;14.23;;;5.53;;
56255;SDS011;57229;51.432;-2.598;2023-07-31T08:59:41;13.10;;;5.35;;
56255;SDS011;57229;51.432;-2.598;2023-07-31T09:02:08;15.05;;;6.00;;
56255;SDS011;57229;51.432;-2.598;2023-07-31T09:04:33;17.48;;;5.90;;
56255;SDS011;57229;51.432;-2.598;2023-07-31T09:07:00;18.27;;;5.88;;
56255;SDS011;57229;51.432;-2.598;2023-07-31T09:09:29;15.60;;;6.13;;
56255;SDS011;57229;51.432;-2.598;2023-07-31T09:12:05;20.98;;;6.20;;
56255;SDS011;57229;51.432;-2.598;2023-07-31T09:14:44;16.55;;;6.38;;
56255;SDS011;57229;51.432;-2.598;2023-07-31T09:17:11;17.27;;;5.55;;
56255;SDS011;57229;51.432;-2.598;2023-07-31T09:19:37;24.45;;;6.10;;
56255;SDS011;57229;51.432;-2.598;2023-07-31T09:22:03;20.98;;;6.40;;
56255;SDS011;57229;51.432;-2.598;2023-07-31T09:24:32;21.95;;;6.70;;
56255;SDS011;57229;51.432;-2.598;2023-07-31T09:27:00;19.80;;;7.20;;
56255;SDS011;57229;51.432;-2.598;2023-07-31T09:29:27;22.38;;;7.20;;
56255;SDS011;57229;51.432;-2.598;2023-07-31T09:31:54;17.52;;;6.35;;
56255;SDS011;57229;51.432;-2.598;2023-07-31T09:34:21;18.65;;;6.95;;
56255;SDS011;57229;51.432;-2.598;2023-07-31T09:36:54;21.20;;;6.28;;
56255;SDS011;57229;51.432;-2.598;2023-07-31T09:39:19;20.38;;;6.82;;
56255;SDS011;57229;51.432;-2.598;2023-07-31T09:41:55;22.58;;;7.18;;
56255;SDS011;57229;51.432;-2.598;2023-07-31T09:46:53;21.85;;;6.65;;
56255;SDS011;57229;51.432;-2.598;2023-07-31T09:49:19;16.17;;;6.32;;
56255;SDS011;57229;51.432;-2.598;2023-07-31T09:51:44;20.63;;;7.55;;
56255;SDS011;57229;51.432;-2.598;2023-07-31T09:54:13;23.35;;;7.75;;
56255;SDS011;57229;51.432;-2.598;2023-07-31T09:56:45;25.52;;;7.30;;
56255;SDS011;57229;51.432;-2.598;2023-07-31T09:59:13;13.85;;;6.45;;
56255;SDS011;57229;51.432;-2.598;2023-07-31T10:01:40;20.08;;;6.63;;
56255;SDS011;57229;51.432;-2.598;2023-07-31T10:04:07;17.13;;;6.88;;
56255;SDS011;57229;51.432;-2.598;2023-07-31T10:06:34;13.85;;;6.28;;
56255;SDS011;57229;51.432;-2.598;2023-07-31T10:09:01;21.02;;;7.50;;
56255;SDS011;57229;51.432;-2.598;2023-07-31T10:11:30;19.33;;;7.53;;
56255;SDS011;57229;51.432;-2.598;2023-07-31T10:13:59;22.80;;;7.68;;
56255;SDS011;57229;51.432;-2.598;2023-07-31T10:16:25;18.27;;;7.20;;
56255;SDS011;57229;51.432;-2.598;2023-07-31T10:18:51;18.48;;;6.40;;
56255;SDS011;57229;51.432;-2.598;2023-07-31T10:21:17;15.25;;;7.07;;
56255;SDS011;57229;51.432;-2.598;2023-07-31T10:23:43;18.15;;;6.32;;
56255;SDS011;57229;51.432;-2.598;2023-07-31T10:26:09;21.88;;;6.93;;
56255;SDS011;57229;51.432;-2.598;2023-07-31T10:28:36;16.13;;;6.85;;
56255;SDS011;57229;51.432;-2.598;2023-07-31T10:31:04;13.23;;;5.78;;
56255;SDS011;57229;51.432;-2.598;2023-07-31T10:33:31;25.88;;;7.65;;
56255;SDS011;57229;51.432;-2.598;2023-07-31T10:36:12;25.67;;;7.15;;
56255;SDS011;57229;51.432;-2.598;2023-07-31T10:38:39;25.20;;;8.15;;
56255;SDS011;57229;51.432;-2.598;2023-07-31T10:41:09;19.15;;;6.75;;
56255;SDS011;57229;51.432;-2.598;2023-07-31T10:43:36;19.45;;;6.57;;
56255;SDS011;57229;51.432;-2.598;2023-07-31T10:46:06;20.20;;;7.50;;
56255;SDS011;57229;51.432;-2.598;2023-07-31T10:48:39;16.23;;;6.50;;
56255;SDS011;57229;51.432;-2.598;2023-07-31T10:51:07;20.88;;;7.13;;
56255;SDS011;57229;51.432;-2.598;2023-07-31T10:53:35;23.13;;;7.32;;
56255;SDS011;57229;51.432;-2.598;2023-07-31T10:56:01;25.88;;;7.35;;
56255;SDS011;57229;51.432;-2.598;2023-07-31T10:58:29;15.00;;;6.63;;
56255;SDS011;57229;51.432;-2.598;2023-07-31T11:00:57;18.85;;;6.38;;
56255;SDS011;57229;51.432;-2.598;2023-07-31T11:03:25;18.13;;;6.85;;
56255;SDS011;57229;51.432;-2.598;2023-07-31T11:08:25;26.35;;;7.80;;
56255;SDS011;57229;51.432;-2.598;2023-07-31T11:11:13;25.15;;;6.97;;
56255;SDS011;57229;51.432;-2.598;2023-07-31T11:13:45;22.48;;;6.97;;
56255;SDS011;57229;51.432;-2.598;2023-07-31T11:16:14;22.60;;;7.68;;
56255;SDS011;57229;51.432;-2.598;2023-07-31T11:18:44;29.65;;;8.00;;
56255;SDS011;57229;51.432;-2.598;2023-07-31T11:21:14;19.33;;;7.45;;
56255;SDS011;57229;51.432;-2.598;2023-07-31T11:23:41;21.38;;;6.68;;
56255;SDS011;57229;51.432;-2.598;2023-07-31T11:26:10;20.75;;;6.70;;
56255;SDS011;57229;51.432;-2.598;2023-07-31T11:28:36;19.63;;;7.18;;
56255;SDS011;57229;51.432;-2.598;2023-07-31T11:31:03;22.10;;;7.03;;
56255;SDS011;57229;51.432;-2.598;2023-07-31T11:33:29;19.00;;;6.93;;
56255;SDS011;57229;51.432;-2.598;2023-07-31T11:35:54;21.90;;;8.32;;
56255;SDS011;57229;51.432;-2.598;2023-07-31T11:38:21;22.95;;;7.57;;
56255;SDS011;57229;51.432;-2.598;2023-07-31T11:40:48;24.92;;;7.72;;
56255;SDS011;57229;51.432;-2.598;2023-07-31T11:43:14;16.05;;;7.25;;
56255;SDS011;57229;51.432;-2.598;2023-07-31T11:45:44;20.23;;;7.00;;
56255;SDS011;57229;51.432;-2.598;2023-07-31T11:48:21;28.52;;;7.65;;
56255;SDS011;57229;51.432;-2.598;2023-07-31T11:50:55;20.65;;;6.60;;
56255;SDS011;57229;51.432;-2.598;2023-07-31T11:53:33;21.40;;;6.78;;
56255;SDS011;57229;51.432;-2.598;2023-07-31T11:56:06;19.60;;;6.65;;
56255;SDS011;57229;51.432;-2.598;2023-07-31T11:58:36;19.13;;;6.30;;
56255;SDS011;57229;51.432;-2.598;2023-07-31T12:01:02;18.25;;;5.43;;
56255;SDS011;57229;51.432;-2.598;2023-07-31T12:03:28;15.75;;;6.70;;
56255;SDS011;57229;51.432;-2.598;2023-07-31T12:05:54;18.33;;;6.25;;
56255;SDS011;57229;51.432;-2.598;2023-07-31T12:08:20;21.35;;;6.80;;
56255;SDS011;57229;51.432;-2.598;2023-07-31T12:10:49;15.95;;;6.35;;
56255;SDS011;57229;51.432;-2.598;2023-07-31T12:13:26;17.48;;;6.50;;
56255;SDS011;57229;51.432;-2.598;2023-07-31T12:16:01;27.88;;;6.05;;
56255;SDS011;57229;51.432;-2.598;2023-07-31T12:18:29;18.08;;;6.65;;
56255;SDS011;57229;51.432;-2.598;2023-07-31T12:20:59;16.40;;;6.00;;
56255;SDS011;57229;51.432;-2.598;2023-07-31T12:23:32;25.30;;;7.57;;
56255;SDS011;57229;51.432;-2.598;2023-07-31T12:26:08;24.35;;;7.28;;
56255;SDS011;57229;51.432;-2.598;2023-07-31T12:31:12;28.23;;;8.00;;
56255;SDS011;57229;51.432;-2.598;2023-07-31T12:33:46;17.58;;;6.68;;
56255;SDS011;57229;51.432;-2.598;2023-07-31T12:36:14;20.45;;;7.65;;
56255;SDS011;57229;51.432;-2.598;2023-07-31T12:38:45;23.02;;;7.00;;
56255;SDS011;57229;51.432;-2.598;2023-07-31T12:41:11;21.42;;;7.03;;
56255;SDS011;57229;51.432;-2.598;2023-07-31T12:43:38;21.35;;;7.60;;
56255;SDS011;57229;51.432;-2.598;2023-07-31T12:46:05;25.60;;;6.93;;
56255;SDS011;57229;51.432;-2.598;2023-07-31T12:48:32;15.82;;;6.70;;
56255;SDS011;57229;51.432;-2.598;2023-07-31T12:50:58;23.77;;;6.90;;
56255;SDS011;57229;51.432;-2.598;2023-07-31T12:53:24;25.55;;;7.25;;
56255;SDS011;57229;51.432;-2.598;2023-07-31T12:55:50;17.38;;;6.68;;
56255;SDS011;57229;51.432;-2.598;2023-07-31T12:58:15;20.27;;;6.85;;
56255;SDS011;57229;51.432;-2.598;2023-07-31T13:00:41;16.95;;;6.13;;
56255;SDS011;57229;51.432;-2.598;2023-07-31T13:03:07;14.40;;;6.18;;
56255;SDS011;57229;51.432;-2.598;2023-07-31T13:05:33;20.08;;;6.78;;
56255;SDS011;57229;51.432;-2.598;2023-07-31T13:07:58;16.73;;;6.80;;
56255;SDS011;57229;51.432;-2.598;2023-07-31T13:10:24;14.52;;;6.50;;
56255;SDS011;57229;51.432;-2.598;2023-07-31T13:12:51;13.00;;;6.50;;
56255;SDS011;57229;51.432;-2.598;2023-07-31T13:15:17;18.27;;;7.03;;
56255;SDS011;57229;51.432;-2.598;2023-07-31T13:17:43;23.83;;;7.07;;
56255;SDS011;57229;51.432;-2.598;2023-07-31T13:20:09;19.75;;;7.22;;
56255;SDS011;57229;51.432;-2.598;2023-07-31T13:22:35;19.30;;;7.45;;
56255;SDS011;57229;51.432;-2.598;2023-07-31T13:25:01;20.50;;;7.53;;
56255;SDS011;57229;51.432;-2.598;2023-07-31T13:27:26;17.45;;;6.93;;
56255;SDS011;57229;51.432;-2.598;2023-07-31T13:29:52;18.45;;;6.20;;
56255;SDS011;57229;51.432;-2.598;2023-07-31T13:32:18;16.42;;;6.00;;
56255;SDS011;57229;51.432;-2.598;2023-07-31T13:34:45;13.88;;;5.97;;
56255;SDS011;57229;51.432;-2.598;2023-07-31T13:37:11;14.88;;;6.43;;
56255;SDS011;57229;51.432;-2.598;2023-07-31T13:39:36;14.40;;;5.90;;
56255;SDS011;57229;51.432;-2.598;2023-07-31T13:42:02;15.45;;;6.32;;
56255;SDS011;57229;51.432;-2.598;2023-07-31T13:44:31;17.52;;;6.72;;
56255;SDS011;57229;51.432;-2.598;2023-07-31T13:46:58;13.63;;;6.07;;
56255;SDS011;57229;51.432;-2.598;2023-07-31T13:49:25;16.52;;;6.40;;
56255;SDS011;57229;51.432;-2.598;2023-07-31T13:51:51;17.60;;;6.47;;
56255;SDS011;57229;51.432;-2.598;2023-07-31T13:54:16;16.73;;;7.47;;
56255;SDS011;57229;51.432;-2.598;2023-07-31T13:56:43;18.08;;;6.80;;
56255;SDS011;57229;51.432;-2.598;2023-07-31T13:59:12;12.68;;;6.53;;
56255;SDS011;57229;51.432;-2.598;2023-07-31T14:01:40;21.00;;;7.32;;
56255;SDS011;57229;51.432;-2.598;2023-07-31T14:04:05;13.95;;;6.60;;
56255;SDS011;57229;51.432;-2.598;2023-07-31T14:06:31;15.38;;;6.85;;
56255;SDS011;57229;51.432;-2.598;2023-07-31T14:08:57;20.45;;;7.32;;
56255;SDS011;57229;51.432;-2.598;2023-07-31T14:11:23;14.73;;;7.22;;
56255;SDS011;57229;51.432;-2.598;2023-07-31T14:13:49;12.18;;;6.32;;
56255;SDS011;57229;51.432;-2.598;2023-07-31T14:16:15;12.95;;;6.70;;
56255;SDS011;57229;51.432;-2.598;2023-07-31T14:18:41;11.23;;;6.80;;
56255;SDS011;57229;51.432;-2.598;2023-07-31T14:21:07;12.10;;;6.55;;
56255;SDS011;57229;51.432;-2.598;2023-07-31T14:23:33;10.48;;;6.32;;
56255;SDS011;57229;51.432;-2.598;2023-07-31T14:25:59;9.68;;;6.20;;
56255;SDS011;57229;51.432;-2.598;2023-07-31T14:28:25;8.35;;;5.70;;
56255;SDS011;57229;51.432;-2.598;2023-07-31T14:30:50;8.25;;;5.70;;
56255;SDS011;57229;51.432;-2.598;2023-07-31T14:33:16;10.30;;;5.93;;
56255;SDS011;57229;51.432;-2.598;2023-07-31T14:35:41;7.22;;;5.65;;
56255;SDS011;57229;51.432;-2.598;2023-07-31T14:38:07;9.80;;;5.72;;
56255;SDS011;57229;51.432;-2.598;2023-07-31T14:40:33;7.90;;;5.38;;
56255;SDS011;57229;51.432;-2.598;2023-07-31T14:42:59;10.95;;;6.35;;